Time;durP1;ratioP1;P1;durP2;ratioP2;P2;SDS_P1;SDS_P2;PMS_P1;PMS_P2;Temp;Humidity;BMP_temperature;BMP_pressure;BME280_temperature;BME280_humidity;BME280_pressure;Samples;Min_cycle;Max_cycle;Signal;HPM_P1;HPM_P2
2024/03/01 00:01:14;;;;;;;;;;;;;;;;;;5141749;27;19912;-32
2024/03/01 00:03:40;;;;;;;;;;;;;;;;;;5141149;27;20014;-31
2024/03/01 00:06:07;;;;;;;;;;;;;;;;;;5141356;27;19931;-31
2024/03/01 00:08:33;;;;;;;;;;;;;;;;;;5141043;27;19912;-32
2024/03/01 00:10:58;;;;;;;;;;;;;;;;;;5141264;27;19926;-30
2024/03/01 00:13:24;;;;;;;;;;;;;;;;;;5141486;27;20044;-30
2024/03/01 00:15:50;;;;;;;;;;;;;;;;;;5140962;27;19915;-31
2024/03/01 00:18:16;;;;;;;;;;;;;;;;;;5140800;27;20363;-33
2024/03/01 00:20:42;;;;;;;;;;;;;;;;;;5140623;27;19908;-31
2024/03/01 00:23:08;;;;;;;;;;;;;;;;;;5140784;27;19911;-30
2024/03/01 00:25:34;;;;;;;;;;;;;;;;;;5140913;27;19929;-33
2024/03/01 00:28:00;;;;;;;;;;;;;;;;;;5140715;27;19911;-32
2024/03/01 00:30:26;;;;;;;;;;;;;;;;;;5140610;27;19912;-31
2024/03/01 00:32:52;;;;;;;;;;;;;;;;;;5140012;27;19911;-31
2024/03/01 00:35:18;;;;;;;;;;;;;;;;;;5140358;27;19915;-31
2024/03/01 00:37:44;;;;;;;;;;;;;;;;;;5140704;27;20002;-31
2024/03/01 00:40:10;;;;;;;;;;;;;;;;;;5140444;27;20380;-31
2024/03/01 00:42:36;;;;;;;;;;;;;;;;;;5140486;27;19907;-31
2024/03/01 00:45:02;;;;;;;;;;;;;;;;;;5140364;27;19939;-32
2024/03/01 00:47:29;;;;;;;;;;;;;;;;;;5140251;27;19916;-32
2024/03/01 00:49:55;;;;;;;;;;;;;;;;;;5140539;27;19975;-31
2024/03/01 00:52:21;;;;;;;;;;;;;;;;;;5140276;27;20350;-31
2024/03/01 00:54:47;;;;;;;;;;;;;;;;;;5139427;27;19922;-32
2024/03/01 00:57:13;;;;;;;;;;;;;;;;;;5140139;27;19910;-31
2024/03/01 00:59:39;;;;;;;;;;;;;;;;;;5139551;27;19907;-30
2024/03/01 01:02:07;;;;;;;;;;;;;;;;;;5139884;27;19913;-31
2024/03/01 01:04:33;;;;;;;;;;;;;;;;;;5139793;27;19998;-30
2024/03/01 01:06:59;;;;;;;;;;;;;;;;;;5139810;27;19958;-33
2024/03/01 01:09:25;;;;;;;;;;;;;;;;;;5139786;27;19929;-32
2024/03/01 01:11:51;;;;;;;;;;;;;;;;;;5139822;27;20007;-30
2024/03/01 01:14:17;;;;;;;;;;;;;;;;;;5139674;27;19933;-32
2024/03/01 01:16:43;;;;;;;;;;;;;;;;;;5139889;27;19978;-33
2024/03/01 01:19:08;;;;;;;;;;;;;;;;;;5139726;27;19912;-31
2024/03/01 01:21:34;;;;;;;;;;;;;;;;;;5138983;27;19912;-33
2024/03/01 01:24:00;;;;;;;;;;;;;;;;;;5139364;27;19907;-30
2024/03/01 01:26:26;;;;;;;;;;;;;;;;;;5139642;27;19908;-31
2024/03/01 01:28:53;;;;;;;;;;;;;;;;;;5139380;27;19911;-30
2024/03/01 01:31:19;;;;;;;;;;;;;;;;;;5139354;27;19907;-30
2024/03/01 01:33:45;;;;;;;;;;;;;;;;;;5139435;27;19907;-30
2024/03/01 01:36:11;;;;;;;;;;;;;;;;;;5139235;27;20327;-30
2024/03/01 01:38:36;;;;;;;;;;;;;;;;;;5139558;27;19907;-31
2024/03/01 01:41:02;;;;;;;;;;;;;;;;;;5138515;27;19907;-30
2024/03/01 01:43:29;;;;;;;;;;;;;;;;;;5138949;27;19912;-32
2024/03/01 01:45:55;;;;;;;;;;;;;;;;;;5139333;27;20009;-32
2024/03/01 01:48:21;;;;;;;;;;;;;;;;;;5137488;27;19959;-31
2024/03/01 01:50:47;;;;;;;;;;;;;;;;;;5131903;27;19911;-32
2024/03/01 01:53:13;;;;;;;;;;;;;;;;;;5121135;27;20069;-31
2024/03/01 01:55:39;;;;;;;;;;;;;;;;;;5118655;28;19965;-30
2024/03/01 01:58:05;;;;;;;;;;;;;;;;;;5119658;27;19937;-31
2024/03/01 02:00:31;;;;;;;;;;;;;;;;;;5132160;27;19918;-32
2024/03/01 02:02:57;;;;;;;;;;;;;;;;;;5138700;27;20521;-32
2024/03/01 02:05:23;;;;;;;;;;;;;;;;;;5139032;27;19919;-30
2024/03/01 02:07:49;;;;;;;;;;;;;;;;;;5138066;27;19917;-30
2024/03/01 02:10:18;;;;;;;;;;;;;;;;;;5138965;27;19911;-33
2024/03/01 02:12:43;;;;;;;;;;;;;;;;;;5139079;28;19942;-32
2024/03/01 02:15:10;;;;;;;;;;;;;;;;;;5139095;28;19908;-31
2024/03/01 02:17:35;;;;;;;;;;;;;;;;;;5139056;28;19908;-33
2024/03/01 02:20:02;;;;;;;;;;;;;;;;;;5138666;28;19967;-31
2024/03/01 02:22:28;;;;;;;;;;;;;;;;;;5138576;28;20315;-31
2024/03/01 02:24:54;;;;;;;;;;;;;;;;;;5138818;28;19907;-34
2024/03/01 02:27:20;;;;;;;;;;;;;;;;;;5133134;28;19912;-32
2024/03/01 02:29:47;;;;;;;;;;;;;;;;;;5118147;28;19908;-34
2024/03/01 02:32:13;;;;;;;;;;;;;;;;;;5118156;28;19915;-31
2024/03/01 02:34:39;;;;;;;;;;;;;;;;;;5118083;28;20278;-31
2024/03/01 02:37:05;;;;;;;;;;;;;;;;;;5118300;28;19907;-31
2024/03/01 02:39:31;;;;;;;;;;;;;;;;;;5117798;28;19908;-33
2024/03/01 02:41:57;;;;;;;;;;;;;;;;;;5137918;28;19908;-33
2024/03/01 02:44:23;;;;;;;;;;;;;;;;;;5138918;28;20304;-31
2024/03/01 02:46:48;;;;;;;;;;;;;;;;;;5138850;28;19911;-32
2024/03/01 02:49:15;;;;;;;;;;;;;;;;;;5138465;28;19923;-32
2024/03/01 02:51:40;;;;;;;;;;;;;;;;;;5138578;28;19957;-32
2024/03/01 02:54:06;;;;;;;;;;;;;;;;;;5138419;28;19911;-31
2024/03/01 02:56:32;;;;;;;;;;;;;;;;;;5138723;28;19946;-30
2024/03/01 02:58:58;;;;;;;;;;;;;;;;;;5138366;28;19912;-32
2024/03/01 03:01:24;;;;;;;;;;;;;;;;;;5138453;28;20338;-30
2024/03/01 03:03:50;;;;;;;;;;;;;;;;;;5138185;28;19972;-31
2024/03/01 03:06:16;;;;;;;;;;;;;;;;;;5138695;28;19908;-30
2024/03/01 03:08:42;;;;;;;;;;;;;;;;;;5138123;28;19950;-32
2024/03/01 03:11:08;;;;;;;;;;;;;;;;;;5138293;28;20066;-31
2024/03/01 03:13:34;;;;;;;;;;;;;;;;;;5138444;28;19914;-33
2024/03/01 03:16:00;;;;;;;;;;;;;;;;;;5137995;28;19948;-32
2024/03/01 03:18:26;;;;;;;;;;;;;;;;;;5140713;27;19995;-31
2024/03/01 03:20:52;;;;;;;;;;;;;;;;;;5141400;27;19950;-34
2024/03/01 03:23:18;;;;;;;;;;;;;;;;;;5141910;27;19918;-31
2024/03/01 03:25:44;;;;;;;;;;;;;;;;;;5142183;27;19914;-31
2024/03/01 03:28:10;;;;;;;;;;;;;;;;;;5141725;27;19987;-31
2024/03/01 03:30:36;;;;;;;;;;;;;;;;;;5141776;27;20336;-30
2024/03/01 03:33:03;;;;;;;;;;;;;;;;;;5142045;27;19908;-30
2024/03/01 03:35:29;;;;;;;;;;;;;;;;;;5141710;27;19914;-33
2024/03/01 03:37:55;;;;;;;;;;;;;;;;;;5141739;27;19907;-34
2024/03/01 03:40:21;;;;;;;;;;;;;;;;;;5141568;27;19907;-32
2024/03/01 03:42:47;;;;;;;;;;;;;;;;;;5142072;27;20307;-31
2024/03/01 03:45:13;;;;;;;;;;;;;;;;;;5141579;27;19912;-32
2024/03/01 03:47:39;;;;;;;;;;;;;;;;;;5141714;27;19919;-32
2024/03/01 03:50:08;;;;;;;;;;;;;;;;;;5141534;27;20409;-30
2024/03/01 03:52:34;;;;;;;;;;;;;;;;;;5141602;27;19907;-30
2024/03/01 03:55:00;;;;;;;;;;;;;;;;;;5141427;27;19947;-32
2024/03/01 03:57:26;;;;;;;;;;;;;;;;;;5141240;27;20378;-31
2024/03/01 03:59:52;;;;;;;;;;;;;;;;;;5140977;27;19921;-31
2024/03/01 04:02:18;;;;;;;;;;;;;;;;;;5141455;27;19912;-33
2024/03/01 04:04:44;;;;;;;;;;;;;;;;;;5141020;27;19925;-30
2024/03/01 04:07:10;;;;;;;;;;;;;;;;;;5141204;27;19929;-31
2024/03/01 04:09:36;;;;;;;;;;;;;;;;;;5141201;27;19914;-32
2024/03/01 04:12:05;;;;;;;;;;;;;;;;;;5141114;27;19908;-33
2024/03/01 04:14:31;;;;;;;;;;;;;;;;;;5140739;27;19908;-31
2024/03/01 04:16:57;;;;;;;;;;;;;;;;;;5140337;27;19919;-31
2024/03/01 04:19:24;;;;;;;;;;;;;;;;;;5140534;27;19912;-32
2024/03/01 04:21:52;;;;;;;;;;;;;;;;;;5140619;27;19914;-33
2024/03/01 04:24:18;;;;;;;;;;;;;;;;;;5141218;27;20016;-30
2024/03/01 04:26:44;;;;;;;;;;;;;;;;;;5140831;27;19912;-31
2024/03/01 04:29:10;;;;;;;;;;;;;;;;;;5140318;27;20343;-31
2024/03/01 04:31:36;;;;;;;;;;;;;;;;;;5140588;27;20325;-32
2024/03/01 04:34:05;;;;;;;;;;;;;;;;;;5140869;27;19952;-31
2024/03/01 04:36:31;;;;;;;;;;;;;;;;;;5140793;27;19914;-30
2024/03/01 04:38:57;;;;;;;;;;;;;;;;;;5140824;27;19907;-34
2024/03/01 04:41:23;;;;;;;;;;;;;;;;;;5140244;27;19930;-33
2024/03/01 04:43:49;;;;;;;;;;;;;;;;;;5140553;27;19907;-30
2024/03/01 04:46:15;;;;;;;;;;;;;;;;;;5140368;27;19904;-31
2024/03/01 04:48:41;;;;;;;;;;;;;;;;;;5140568;27;20255;-31
2024/03/01 04:51:07;;;;;;;;;;;;;;;;;;5140300;27;20006;-32
2024/03/01 04:53:33;;;;;;;;;;;;;;;;;;5140696;27;19907;-30
2024/03/01 04:55:59;;;;;;;;;;;;;;;;;;5140388;27;19938;-30
2024/03/01 04:58:25;;;;;;;;;;;;;;;;;;5140618;27;19908;-31
2024/03/01 05:00:51;;;;;;;;;;;;;;;;;;5139933;27;19951;-32
2024/03/01 05:03:17;;;;;;;;;;;;;;;;;;5140056;27;19915;-31
2024/03/01 05:05:43;;;;;;;;;;;;;;;;;;5140041;27;19907;-31
2024/03/01 05:08:09;;;;;;;;;;;;;;;;;;5139817;27;19978;-31
2024/03/01 05:10:35;;;;;;;;;;;;;;;;;;5139974;27;19913;-31
2024/03/01 05:13:02;;;;;;;;;;;;;;;;;;5140359;27;20355;-31
2024/03/01 05:15:28;;;;;;;;;;;;;;;;;;5139831;27;19908;-31
2024/03/01 05:17:54;;;;;;;;;;;;;;;;;;5139951;27;19997;-30
2024/03/01 05:20:20;;;;;;;;;;;;;;;;;;5139896;27;19908;-32
2024/03/01 05:22:46;;;;;;;;;;;;;;;;;;5139720;27;20243;-30
2024/03/01 05:25:15;;;;;;;;;;;;;;;;;;5139774;27;20312;-30
2024/03/01 05:27:41;;;;;;;;;;;;;;;;;;5139693;27;19912;-30
2024/03/01 05:30:08;;;;;;;;;;;;;;;;;;5139533;27;19907;-31
2024/03/01 05:32:34;;;;;;;;;;;;;;;;;;5140270;27;19910;-30
2024/03/01 05:35:00;;;;;;;;;;;;;;;;;;5139486;27;19908;-30
2024/03/01 05:37:26;;;;;;;;;;;;;;;;;;5139619;27;19987;-31
2024/03/01 05:39:52;;;;;;;;;;;;;;;;;;5139159;27;19907;-31
2024/03/01 05:42:20;;;;;;;;;;;;;;;;;;5138666;27;19912;-30
2024/03/01 05:44:46;;;;;;;;;;;;;;;;;;5139351;27;19933;-30
2024/03/01 05:47:12;;;;;;;;;;;;;;;;;;5139447;27;19907;-30
2024/03/01 05:49:39;;;;;;;;;;;;;;;;;;5139118;27;20439;-30
2024/03/01 05:52:05;;;;;;;;;;;;;;;;;;5120766;27;19914;-30
2024/03/01 05:54:31;;;;;;;;;;;;;;;;;;5139599;27;19915;-35
2024/03/01 05:56:58;;;;;;;;;;;;;;;;;;5139630;27;19914;-31
2024/03/01 05:59:24;;;;;;;;;;;;;;;;;;5139132;27;19914;-32
2024/03/01 06:01:50;;;;;;;;;;;;;;;;;;5138990;27;19998;-32
2024/03/01 06:04:16;;;;;;;;;;;;;;;;;;5138740;27;19971;-31
2024/03/01 06:06:42;;;;;;;;;;;;;;;;;;5139349;27;19908;-33
2024/03/01 06:09:09;;;;;;;;;;;;;;;;;;5138677;27;19965;-31
2024/03/01 06:11:35;;;;;;;;;;;;;;;;;;5139324;28;19929;-31
2024/03/01 06:14:00;;;;;;;;;;;;;;;;;;5139398;28;20320;-33
2024/03/01 06:16:26;;;;;;;;;;;;;;;;;;5138815;28;19907;-31
2024/03/01 06:18:53;;;;;;;;;;;;;;;;;;5139052;28;20032;-31
2024/03/01 06:21:19;;;;;;;;;;;;;;;;;;5138855;28;19951;-32
2024/03/01 06:23:45;;;;;;;;;;;;;;;;;;5139068;28;19913;-31
2024/03/01 06:26:11;;;;;;;;;;;;;;;;;;5139041;28;19908;-30
2024/03/01 06:28:38;;;;;;;;;;;;;;;;;;5138881;28;20388;-31
2024/03/01 06:31:04;;;;;;;;;;;;;;;;;;5138708;28;20278;-30
2024/03/01 06:33:29;;;;;;;;;;;;;;;;;;5138966;28;19914;-32
2024/03/01 06:35:55;;;;;;;;;;;;;;;;;;5120276;28;19950;-31
2024/03/01 06:38:21;;;;;;;;;;;;;;;;;;5138879;28;19912;-31
2024/03/01 06:40:47;;;;;;;;;;;;;;;;;;5139100;28;19914;-31
2024/03/01 06:43:13;;;;;;;;;;;;;;;;;;5139189;28;19908;-33
2024/03/01 06:45:39;;;;;;;;;;;;;;;;;;5138864;28;19907;-30
2024/03/01 06:48:05;;;;;;;;;;;;;;;;;;5139024;28;19964;-32
2024/03/01 06:50:41;;;;;;;;;;;;;;;;;;5138376;28;20285;-32
2024/03/01 06:53:07;;;;;;;;;;;;;;;;;;5140839;27;19913;-33
2024/03/01 06:55:33;;;;;;;;;;;;;;;;;;5142816;27;19986;-31
2024/03/01 06:57:59;;;;;;;;;;;;;;;;;;5142490;27;19912;-30
2024/03/01 07:00:25;;;;;;;;;;;;;;;;;;5142926;27;19907;-31
2024/03/01 07:02:51;;;;;;;;;;;;;;;;;;5142139;27;20040;-34
2024/03/01 07:05:17;;;;;;;;;;;;;;;;;;5142575;27;19907;-32
2024/03/01 07:07:43;;;;;;;;;;;;;;;;;;5142212;27;20024;-31
2024/03/01 07:10:09;;;;;;;;;;;;;;;;;;5123595;27;19911;-32
2024/03/01 07:12:36;;;;;;;;;;;;;;;;;;5142390;27;19910;-32
2024/03/01 07:15:02;;;;;;;;;;;;;;;;;;5141921;27;19929;-31
2024/03/01 07:17:28;;;;;;;;;;;;;;;;;;5142018;27;19903;-33
2024/03/01 07:19:54;;;;;;;;;;;;;;;;;;5142402;27;19908;-31
2024/03/01 07:22:20;;;;;;;;;;;;;;;;;;5142159;27;19904;-30
2024/03/01 07:24:46;;;;;;;;;;;;;;;;;;5142414;27;19907;-32
2024/03/01 07:27:12;;;;;;;;;;;;;;;;;;5141840;27;19986;-31
2024/03/01 07:29:38;;;;;;;;;;;;;;;;;;5142316;27;19908;-35
2024/03/01 07:32:04;;;;;;;;;;;;;;;;;;5141617;27;19912;-31
2024/03/01 07:34:30;;;;;;;;;;;;;;;;;;5127645;27;19978;-32
2024/03/01 07:36:56;;;;;;;;;;;;;;;;;;5126840;27;19919;-31
2024/03/01 07:39:22;;;;;;;;;;;;;;;;;;5132623;27;19908;-31
2024/03/01 07:41:48;;;;;;;;;;;;;;;;;;5130529;27;19907;-31
2024/03/01 07:44:14;;;;;;;;;;;;;;;;;;5137315;27;19922;-30
2024/03/01 07:46:40;;;;;;;;;;;;;;;;;;5140145;27;19912;-30
2024/03/01 07:49:06;;;;;;;;;;;;;;;;;;5133426;27;19968;-31
2024/03/01 07:51:32;;;;;;;;;;;;;;;;;;5132053;27;19907;-32
2024/03/01 07:53:58;;;;;;;;;;;;;;;;;;5129540;27;19911;-33
2024/03/01 07:56:24;;;;;;;;;;;;;;;;;;5130813;27;19908;-31
2024/03/01 07:58:50;;;;;;;;;;;;;;;;;;5139291;27;19915;-30
2024/03/01 08:01:17;;;;;;;;;;;;;;;;;;5140349;27;19935;-32
2024/03/01 08:03:44;;;;;;;;;;;;;;;;;;5139276;27;19940;-30
2024/03/01 08:06:10;;;;;;;;;;;;;;;;;;5122721;27;19907;-32
2024/03/01 08:08:36;;;;;;;;;;;;;;;;;;5141544;27;20288;-32
2024/03/01 08:11:02;;;;;;;;;;;;;;;;;;5140749;27;19945;-36
2024/03/01 08:13:28;;;;;;;;;;;;;;;;;;5140949;27;19929;-32
2024/03/01 08:15:54;;;;;;;;;;;;;;;;;;5140890;27;19994;-31
2024/03/01 08:18:20;;;;;;;;;;;;;;;;;;5140844;27;19908;-30
2024/03/01 08:20:46;;;;;;;;;;;;;;;;;;5141029;27;19930;-30
2024/03/01 08:23:12;;;;;;;;;;;;;;;;;;5140931;27;19907;-35
2024/03/01 08:25:38;;;;;;;;;;;;;;;;;;5140851;27;20378;-31
2024/03/01 08:28:04;;;;;;;;;;;;;;;;;;5140448;27;19911;-31
2024/03/01 08:30:30;;;;;;;;;;;;;;;;;;5140937;27;19908;-33
2024/03/01 08:32:56;;;;;;;;;;;;;;;;;;5140826;27;19911;-33
2024/03/01 08:35:22;;;;;;;;;;;;;;;;;;5140431;27;20343;-33
2024/03/01 08:37:48;;;;;;;;;;;;;;;;;;5140534;27;19914;-32
2024/03/01 08:40:14;;;;;;;;;;;;;;;;;;5140918;27;20320;-31
2024/03/01 08:42:40;;;;;;;;;;;;;;;;;;5140835;27;19949;-33
2024/03/01 08:45:06;;;;;;;;;;;;;;;;;;5140543;27;19956;-31
2024/03/01 08:47:34;;;;;;;;;;;;;;;;;;5140143;27;20002;-32
2024/03/01 08:50:01;;;;;;;;;;;;;;;;;;5139942;27;20300;-33
2024/03/01 08:52:27;;;;;;;;;;;;;;;;;;5140492;27;19910;-31
2024/03/01 08:54:53;;;;;;;;;;;;;;;;;;5140182;27;19943;-34
2024/03/01 08:57:19;;;;;;;;;;;;;;;;;;5140161;27;19904;-31
2024/03/01 08:59:45;;;;;;;;;;;;;;;;;;5140524;27;19947;-31
2024/03/01 09:02:11;;;;;;;;;;;;;;;;;;5139837;27;19907;-32
2024/03/01 09:04:37;;;;;;;;;;;;;;;;;;5139709;27;20274;-30
2024/03/01 09:07:04;;;;;;;;;;;;;;;;;;5139860;27;19904;-31
2024/03/01 09:09:30;;;;;;;;;;;;;;;;;;5139513;27;19912;-30
2024/03/01 09:11:58;;;;;;;;;;;;;;;;;;5139039;27;20137;-31
2024/03/01 09:14:24;;;;;;;;;;;;;;;;;;5139640;27;20303;-33
2024/03/01 09:16:50;;;;;;;;;;;;;;;;;;5139117;27;20326;-33
2024/03/01 09:19:16;;;;;;;;;;;;;;;;;;5140056;27;19954;-32
2024/03/01 09:21:42;;;;;;;;;;;;;;;;;;5139694;27;19942;-31
2024/03/01 09:24:08;;;;;;;;;;;;;;;;;;5139396;27;19985;-30
2024/03/01 09:26:34;;;;;;;;;;;;;;;;;;5139611;27;19908;-33
2024/03/01 09:29:01;;;;;;;;;;;;;;;;;;5139420;27;19938;-32
2024/03/01 09:31:27;;;;;;;;;;;;;;;;;;5139501;27;19914;-31
2024/03/01 09:33:53;;;;;;;;;;;;;;;;;;5139784;27;19907;-31
2024/03/01 09:36:19;;;;;;;;;;;;;;;;;;5139425;27;19919;-34
2024/03/01 09:38:45;;;;;;;;;;;;;;;;;;5140159;27;19907;-31
2024/03/01 09:41:15;;;;;;;;;;;;;;;;;;5139311;27;19915;-31
2024/03/01 09:43:41;;;;;;;;;;;;;;;;;;5139292;27;19908;-32
2024/03/01 09:46:07;;;;;;;;;;;;;;;;;;5139745;27;19907;-30
2024/03/01 09:48:33;;;;;;;;;;;;;;;;;;5139093;27;19915;-32
2024/03/01 09:51:00;;;;;;;;;;;;;;;;;;5138485;27;19919;-31
2024/03/01 09:53:26;;;;;;;;;;;;;;;;;;5138166;27;20374;-31
2024/03/01 09:55:52;;;;;;;;;;;;;;;;;;5138550;27;19907;-32
2024/03/01 09:58:18;;;;;;;;;;;;;;;;;;5129970;27;20263;-33
2024/03/01 10:00:43;;;;;;;;;;;;;;;;;;5127193;27;19968;-33
2024/03/01 10:03:09;;;;;;;;;;;;;;;;;;5129858;27;19915;-31
2024/03/01 10:05:37;;;;;;;;;;;;;;;;;;5134275;27;19919;-31
2024/03/01 10:08:03;;;;;;;;;;;;;;;;;;5136124;27;19911;-34
2024/03/01 10:10:29;;;;;;;;;;;;;;;;;;5138848;27;20389;-32
2024/03/01 10:12:55;;;;;;;;;;;;;;;;;;5122020;27;19908;-33
2024/03/01 10:15:21;;;;;;;;;;;;;;;;;;5119431;28;20377;-31
2024/03/01 10:17:48;;;;;;;;;;;;;;;;;;5138704;28;19908;-32
2024/03/01 10:20:14;;;;;;;;;;;;;;;;;;5138556;28;20290;-33
2024/03/01 10:22:40;;;;;;;;;;;;;;;;;;5138839;28;19907;-30
2024/03/01 10:25:06;;;;;;;;;;;;;;;;;;5138865;28;19907;-30
2024/03/01 10:27:31;;;;;;;;;;;;;;;;;;5141439;27;19907;-31
2024/03/01 10:29:57;;;;;;;;;;;;;;;;;;5141890;27;19907;-30
2024/03/01 10:32:23;;;;;;;;;;;;;;;;;;5122506;28;19908;-30
2024/03/01 10:34:49;;;;;;;;;;;;;;;;;;5122303;28;19999;-34
2024/03/01 10:37:15;;;;;;;;;;;;;;;;;;5122303;28;20362;-31
2024/03/01 10:39:41;;;;;;;;;;;;;;;;;;5121865;28;20382;-31
2024/03/01 10:42:07;;;;;;;;;;;;;;;;;;5121960;28;19908;-33
2024/03/01 10:44:33;;;;;;;;;;;;;;;;;;5122040;28;19931;-34
2024/03/01 10:46:59;;;;;;;;;;;;;;;;;;5122051;28;19912;-32
2024/03/01 10:49:25;;;;;;;;;;;;;;;;;;5121890;28;19912;-30
2024/03/01 10:51:52;;;;;;;;;;;;;;;;;;5121827;28;19912;-33
2024/03/01 10:54:19;;;;;;;;;;;;;;;;;;5121712;28;20278;-34
2024/03/01 10:56:46;;;;;;;;;;;;;;;;;;5121932;28;19915;-31
2024/03/01 10:59:12;;;;;;;;;;;;;;;;;;5121849;28;19910;-34
2024/03/01 11:01:40;;;;;;;;;;;;;;;;;;5121977;28;20252;-31
2024/03/01 11:04:06;;;;;;;;;;;;;;;;;;5121582;28;19927;-30
2024/03/01 11:06:33;;;;;;;;;;;;;;;;;;5121877;28;19904;-30
2024/03/01 11:08:59;;;;;;;;;;;;;;;;;;5121589;28;19912;-33
2024/03/01 11:11:25;;;;;;;;;;;;;;;;;;5126459;27;20002;-33
2024/03/01 11:13:51;;;;;;;;;;;;;;;;;;5141638;27;19914;-31
2024/03/01 11:16:17;;;;;;;;;;;;;;;;;;5142070;27;19907;-30
2024/03/01 11:18:43;;;;;;;;;;;;;;;;;;5142192;27;19986;-31
2024/03/01 11:21:09;;;;;;;;;;;;;;;;;;5142067;27;19946;-30
2024/03/01 11:23:35;;;;;;;;;;;;;;;;;;5141968;27;19907;-31
2024/03/01 11:26:01;;;;;;;;;;;;;;;;;;5141794;27;19953;-30
2024/03/01 11:28:27;;;;;;;;;;;;;;;;;;5141956;27;19911;-32
2024/03/01 11:30:53;;;;;;;;;;;;;;;;;;5141977;27;20297;-33
2024/03/01 11:33:19;;;;;;;;;;;;;;;;;;5141740;27;20300;-30
2024/03/01 11:35:45;;;;;;;;;;;;;;;;;;5141705;27;19907;-31
2024/03/01 11:38:11;;;;;;;;;;;;;;;;;;5122232;27;19908;-31
2024/03/01 11:40:37;;;;;;;;;;;;;;;;;;5141905;27;20006;-33
2024/03/01 11:43:03;;;;;;;;;;;;;;;;;;5141836;27;19951;-32
2024/03/01 11:45:29;;;;;;;;;;;;;;;;;;5141871;27;19912;-30
2024/03/01 11:47:56;;;;;;;;;;;;;;;;;;5140512;27;19919;-30
2024/03/01 11:50:26;;;;;;;;;;;;;;;;;;5141476;27;19908;-33
2024/03/01 11:52:53;;;;;;;;;;;;;;;;;;5121616;27;19951;-31
2024/03/01 11:55:19;;;;;;;;;;;;;;;;;;5120540;28;19912;-31
2024/03/01 11:57:45;;;;;;;;;;;;;;;;;;5120853;28;19911;-31
2024/03/01 12:00:11;;;;;;;;;;;;;;;;;;5120863;28;19907;-32
2024/03/01 12:02:37;;;;;;;;;;;;;;;;;;5120911;28;19908;-30
2024/03/01 12:05:04;;;;;;;;;;;;;;;;;;5120341;28;19926;-30
2024/03/01 12:07:30;;;;;;;;;;;;;;;;;;5120161;28;19931;-31
2024/03/01 12:09:57;;;;;;;;;;;;;;;;;;5120594;28;19908;-33
2024/03/01 12:12:24;;;;;;;;;;;;;;;;;;5120557;28;19945;-30
2024/03/01 12:14:50;;;;;;;;;;;;;;;;;;5128151;27;19957;-33
2024/03/01 12:17:16;;;;;;;;;;;;;;;;;;5130905;27;19915;-31
2024/03/01 12:19:42;;;;;;;;;;;;;;;;;;5127040;27;19908;-31
2024/03/01 12:22:08;;;;;;;;;;;;;;;;;;5139159;27;19919;-32
2024/03/01 12:24:35;;;;;;;;;;;;;;;;;;5131276;27;19925;-32
2024/03/01 12:27:03;;;;;;;;;;;;;;;;;;5134641;27;19907;-35
2024/03/01 12:29:29;;;;;;;;;;;;;;;;;;5128837;27;19912;-34
2024/03/01 12:31:55;;;;;;;;;;;;;;;;;;5128513;27;19908;-33
2024/03/01 12:34:22;;;;;;;;;;;;;;;;;;5130133;27;19914;-30
2024/03/01 12:36:48;;;;;;;;;;;;;;;;;;5131444;27;20382;-31
2024/03/01 12:39:14;;;;;;;;;;;;;;;;;;5129686;27;20444;-33
2024/03/01 12:41:40;;;;;;;;;;;;;;;;;;5131996;27;19908;-33
2024/03/01 12:44:07;;;;;;;;;;;;;;;;;;5128726;27;19961;-31
2024/03/01 12:46:33;;;;;;;;;;;;;;;;;;5128389;27;20431;-31
2024/03/01 12:48:59;;;;;;;;;;;;;;;;;;5130136;27;19924;-31
2024/03/01 12:51:25;;;;;;;;;;;;;;;;;;5129522;27;19907;-32
2024/03/01 12:53:51;;;;;;;;;;;;;;;;;;5131152;27;20010;-31
2024/03/01 12:56:20;;;;;;;;;;;;;;;;;;5128365;27;19908;-31
2024/03/01 12:58:48;;;;;;;;;;;;;;;;;;5131175;27;20358;-30
2024/03/01 13:01:14;;;;;;;;;;;;;;;;;;5125339;27;19908;-30
2024/03/01 13:03:40;;;;;;;;;;;;;;;;;;5119252;28;19920;-31
2024/03/01 13:06:06;;;;;;;;;;;;;;;;;;5135326;27;19923;-32
2024/03/01 13:08:33;;;;;;;;;;;;;;;;;;5139951;27;19911;-34
2024/03/01 13:10:59;;;;;;;;;;;;;;;;;;5138380;27;19922;-31
2024/03/01 13:13:26;;;;;;;;;;;;;;;;;;5138244;27;19908;-31
2024/03/01 13:15:53;;;;;;;;;;;;;;;;;;5138381;27;19912;-31
2024/03/01 13:18:19;;;;;;;;;;;;;;;;;;5139779;27;19907;-32
2024/03/01 13:20:45;;;;;;;;;;;;;;;;;;5136460;27;19953;-31
2024/03/01 13:23:10;;;;;;;;;;;;;;;;;;5139348;27;19914;-30
2024/03/01 13:25:36;;;;;;;;;;;;;;;;;;5139281;27;19908;-31
2024/03/01 13:28:02;;;;;;;;;;;;;;;;;;5139377;27;19918;-31
2024/03/01 13:30:30;;;;;;;;;;;;;;;;;;5139603;27;20277;-30
2024/03/01 13:33:01;;;;;;;;;;;;;;;;;;5139112;27;19907;-30
2024/03/01 13:35:27;;;;;;;;;;;;;;;;;;5139447;27;19907;-31
2024/03/01 13:37:53;;;;;;;;;;;;;;;;;;5139510;27;20434;-32
2024/03/01 13:40:19;;;;;;;;;;;;;;;;;;5139477;27;19911;-32
2024/03/01 13:42:45;;;;;;;;;;;;;;;;;;5139602;27;19908;-31
2024/03/01 13:45:14;;;;;;;;;;;;;;;;;;5139334;27;19914;-32
2024/03/01 13:47:40;;;;;;;;;;;;;;;;;;5139045;27;19922;-31
2024/03/01 13:50:07;;;;;;;;;;;;;;;;;;5138834;27;20433;-31
2024/03/01 13:52:33;;;;;;;;;;;;;;;;;;5139373;27;19914;-32
2024/03/01 13:54:59;;;;;;;;;;;;;;;;;;5139060;27;20314;-31
2024/03/01 13:57:26;;;;;;;;;;;;;;;;;;5139150;27;19908;-31
2024/03/01 13:59:52;;;;;;;;;;;;;;;;;;5138974;27;20268;-31
2024/03/01 14:02:18;;;;;;;;;;;;;;;;;;5138435;27;19911;-33
2024/03/01 14:04:44;;;;;;;;;;;;;;;;;;5138380;27;19926;-30
2024/03/01 14:07:10;;;;;;;;;;;;;;;;;;5139324;27;20281;-34
2024/03/01 14:10:05;;;;;;;;;;;;;;;;;;5138838;27;19934;-32
2024/03/01 14:12:31;;;;;;;;;;;;;;;;;;5139042;27;19907;-31
2024/03/01 14:14:57;;;;;;;;;;;;;;;;;;5138936;28;19969;-30
2024/03/01 14:17:23;;;;;;;;;;;;;;;;;;5138799;28;19908;-31
2024/03/01 14:19:51;;;;;;;;;;;;;;;;;;5138995;28;19919;-30
2024/03/01 14:22:17;;;;;;;;;;;;;;;;;;5138875;28;19915;-31
2024/03/01 14:24:44;;;;;;;;;;;;;;;;;;5138743;28;19908;-32
2024/03/01 14:27:10;;;;;;;;;;;;;;;;;;5138733;28;19914;-33
2024/03/01 14:29:36;;;;;;;;;;;;;;;;;;5138628;28;19911;-33
2024/03/01 14:32:02;;;;;;;;;;;;;;;;;;5138798;28;19907;-33
2024/03/01 14:34:28;;;;;;;;;;;;;;;;;;5138525;28;20270;-32
2024/03/01 14:36:57;;;;;;;;;;;;;;;;;;5138863;28;19908;-33
2024/03/01 14:39:23;;;;;;;;;;;;;;;;;;5136903;28;19916;-30
2024/03/01 14:41:49;;;;;;;;;;;;;;;;;;5137041;28;19912;-31
2024/03/01 14:44:15;;;;;;;;;;;;;;;;;;5138669;28;20052;-33
2024/03/01 14:46:41;;;;;;;;;;;;;;;;;;5138173;28;19944;-30
2024/03/01 14:49:07;;;;;;;;;;;;;;;;;;5138337;28;19965;-31
2024/03/01 14:51:33;;;;;;;;;;;;;;;;;;5138858;28;19912;-31
2024/03/01 14:54:00;;;;;;;;;;;;;;;;;;5138182;28;20342;-30
2024/03/01 14:56:26;;;;;;;;;;;;;;;;;;5138331;28;19926;-34
2024/03/01 14:58:52;;;;;;;;;;;;;;;;;;5138384;28;19908;-31
2024/03/01 15:01:19;;;;;;;;;;;;;;;;;;5138229;28;19968;-31
2024/03/01 15:03:48;;;;;;;;;;;;;;;;;;5138690;28;19930;-31
2024/03/01 15:06:14;;;;;;;;;;;;;;;;;;5138816;28;19947;-31
2024/03/01 15:08:40;;;;;;;;;;;;;;;;;;5138160;28;19972;-31
2024/03/01 15:11:07;;;;;;;;;;;;;;;;;;5138624;28;19945;-31
2024/03/01 15:13:34;;;;;;;;;;;;;;;;;;5139230;27;19912;-31
2024/03/01 15:16:00;;;;;;;;;;;;;;;;;;5142224;27;19994;-31
2024/03/01 15:18:25;;;;;;;;;;;;;;;;;;5142446;27;19950;-30
2024/03/01 15:20:52;;;;;;;;;;;;;;;;;;5142024;27;19907;-30
2024/03/01 15:23:18;;;;;;;;;;;;;;;;;;5141906;27;19907;-31
2024/03/01 15:25:44;;;;;;;;;;;;;;;;;;5141803;27;19907;-31
2024/03/01 15:28:13;;;;;;;;;;;;;;;;;;5141901;27;19915;-30
2024/03/01 15:30:39;;;;;;;;;;;;;;;;;;5142124;27;19911;-30
2024/03/01 15:33:05;;;;;;;;;;;;;;;;;;5142071;27;19914;-30
2024/03/01 15:35:33;;;;;;;;;;;;;;;;;;5141643;27;19907;-31
2024/03/01 15:38:08;;;;;;;;;;;;;;;;;;5141864;27;19911;-30
2024/03/01 15:40:37;;;;;;;;;;;;;;;;;;5141315;27;20277;-31
2024/03/01 15:43:03;;;;;;;;;;;;;;;;;;5141674;27;19982;-33
2024/03/01 15:45:29;;;;;;;;;;;;;;;;;;5141852;27;19922;-33
2024/03/01 15:47:55;;;;;;;;;;;;;;;;;;5141504;27;19932;-30
2024/03/01 15:50:21;;;;;;;;;;;;;;;;;;5141593;27;19918;-31
2024/03/01 15:52:54;;;;;;;;;;;;;;;;;;5140966;27;19914;-32
2024/03/01 15:55:21;;;;;;;;;;;;;;;;;;5140994;27;20434;-31
2024/03/01 15:57:47;;;;;;;;;;;;;;;;;;5140038;27;19914;-32
2024/03/01 16:00:18;;;;;;;;;;;;;;;;;;5139513;27;19903;-34
2024/03/01 16:02:45;;;;;;;;;;;;;;;;;;5141107;27;19908;-32
2024/03/01 16:05:11;;;;;;;;;;;;;;;;;;5141464;27;19998;-31
2024/03/01 16:07:37;;;;;;;;;;;;;;;;;;5141582;27;19949;-31
2024/03/01 16:10:03;;;;;;;;;;;;;;;;;;5141124;27;19915;-30
2024/03/01 16:12:29;;;;;;;;;;;;;;;;;;5140571;27;19907;-31
2024/03/01 16:14:54;;;;;;;;;;;;;;;;;;5141272;27;19907;-30
2024/03/01 16:17:20;;;;;;;;;;;;;;;;;;5140573;27;19979;-31
2024/03/01 16:19:47;;;;;;;;;;;;;;;;;;5140867;27;19908;-31
2024/03/01 16:22:13;;;;;;;;;;;;;;;;;;5140866;27;19911;-32
2024/03/01 16:24:39;;;;;;;;;;;;;;;;;;5140409;27;19914;-30
2024/03/01 16:27:05;;;;;;;;;;;;;;;;;;5141249;27;19908;-32
2024/03/01 16:29:30;;;;;;;;;;;;;;;;;;5141241;27;19918;-33
2024/03/01 16:31:56;;;;;;;;;;;;;;;;;;5141137;27;20435;-33
2024/03/01 16:34:22;;;;;;;;;;;;;;;;;;5140953;27;19914;-30
2024/03/01 16:36:48;;;;;;;;;;;;;;;;;;5140410;27;19914;-33
2024/03/01 16:39:14;;;;;;;;;;;;;;;;;;5140127;27;19911;-34